MWCRMKJS

Guest
Details From MWCR - Owen Roberts Intl
To MKJS - Sangster Intl
Flight Number -
Tags generated
Created
Modified
Stats Distance 201 nm / 373 km
Max Altitude 23,900 ft / 7,285 m
Waypoints 4
Social Downloads 2
Likes 0
Share VATSIM

Download

Looking for another format? Having issues loading an existing format? Contact us
Advertisement - Login to hide

Notes

Basic altitude profile: - Ascent Rate: 2500ft/min - Ascent Speed: 250kts - Cruise Altitude: 35000ft - Cruise Speed: 420kts - Descent Rate: 1500ft/min - Descent Speed: 250kts Options: - Use NATs: no - Use PACOTS: no - Use low airways: yes - Use high airways: no

Route

MWCR NALRO G633 OTEKO MKJS

ID Type Via Altitude Latitude Longitude Leg Dist Tot Dist Heading (true) Name
O MWCR APT - 0 ft / 0 m 19.29278˚ -81.35776˚ - 0 nm - Owen Roberts Intl
NALRO FIX - 23,900 ft / 7,285 m 19.03083˚ -80.20614˚ 67 nm 67 nm 103° / 104° -
OTEKO FIX G633 (AWY-LO) 19,900 ft / 6,066 m 18.87028˚ -79.50000˚ 41 nm 108 nm 103° / 104° -
O MKJS APT - 0 ft / 0 m 18.50355˚ -77.91370˚ 92 nm 201 nm 103° / 104° Sangster Intl

Altitude Profile

Advertisement - Login to hide

Weather


0- 5 10 15 20 25 30 35+ Temperature / ° C

Clouds and Precipitation
Forecast for 2018-06-24 12:00 UTC. Updated 5 hours ago

Ground ~20,000 ft ~40,000 ft Winds

MWCR

Details ICAO MWCR (GCM)
Name Owen Roberts Intl
Region Cayman Islands
Timezone America/Cayman (UTC-5.0)
Stats Elevation 7 ft / 2 m (AMSL)
Location 19.292776° -81.357760°
Runways 1
Magnetic Variation 5.054° W

METAR

MWCR 241400Z 08009KT 9999 FEW016 SCT030 29/25 Q1015

Decode

TAF

TAF MWCR 241100Z 2412/2512 12010KT 9999 VCSH SCT016CB PROB30 TEMPO 2418/2423 9000 TSRA SCT016CB

Decode

Departure Runways

ID Width Length Bearing (true) Bearing (mag) Surface Threshold Offset Overrun Length
08 148 ft / 45 m 7,016 ft / 2,139 m 75.84° 80.89° Asphalt 0 ft / 0 m 0 ft / 0 m
26 148 ft / 45 m 7,016 ft / 2,139 m 255.85° 260.90° Asphalt 400 ft / 122 m 0 ft / 0 m

MKJS

Details ICAO MKJS (MBJ)
Name Sangster Intl
Region Jamaica
Timezone America/Jamaica (UTC-5.0)
Stats Elevation 6 ft / 2 m (AMSL)
Location 18.503549° -77.913698°
Runways 1
Magnetic Variation 7.016° W

METAR

MKJS 241400Z 11005KT 9999 FEW022 31/23 Q1015

Decode

TAF

TAF MKJS 240515Z 2406/2506 VRB05KT 9999 FEW022 FEW024CB BECMG 2414/2416 07018KT PROB40 TEMPO 2418/2424 8000 TSRA SCT020 SCT022CB BECMG 2502/2504 VRB03KT

Decode

Destination Runways

ID Width Length Bearing (true) Bearing (mag) Surface Threshold Offset Overrun Length
07 161 ft / 49 m 8,495 ft / 2,589 m 65.37° 72.39° Asphalt 220 ft / 67 m 312 ft / 95 m
25 161 ft / 49 m 8,495 ft / 2,589 m 245.37° 252.39° Asphalt 577 ft / 176 m 200 ft / 61 m

Approach Navaids

Runway Type Ident Frequency Range Bearing (true) Bearing (mag) Slope Elevation
07 Localiser ISIA 109.50 MHz 18 nm / 33 km 65.41° 72.42° - 4 ft / 1 m (AMSL)
07 Glidescope ISIA 109.50 MHz 10 nm / 19 km 65.37° 72.39° 3.00° 4 ft / 1 m (AMSL)

Popular Alternatives